Pinos Puente, Spain
Current Conditions -  °F | °C
As of 4:30 PM on Sunday 23 Nov 2014 (Local Time) from LEGR Reporting Station
Scattered Clouds Scattered Clouds  
Wind Chill: 70°   Ceiling: Unl
Heat Index: 70°   Visibility: 6mi
Dew Point: 48°   Wind: 6mph
Humidity: 46%   Direction: 70°ENE
Pressure: 29.85"   Gusts: NA
Location:  37.25°N, 3.75°W
Report Text: LEGR 231530Z 07005KT 040V100 9999 FEW050 SCT100 21/09 Q1011
Loading
Personal Weather Stations






























Interactive Weather Map New forecast layout! Learn more

10-Day Weather Forecast

Advertisements
Track Severe Weather on mobile